Domov               UVHVVR             MKGP            O straneh              
ZDRAVSTVENO VARSTVO RASTLIN
  MREŽA AGROMET. POSTAJ
 ► PROGNOSTIČNA OBVESTILA
AGROMETEOROLOŠKI PODATKI -
ARSO
OBVLADOVANJE TVEGANJ ZARADI
NEUGODNIH VREMENSKIH RAZMER
  ► NARAVNE NESREČE
  ► SUŠA/MOČA
  ► NAMAKANJE
  ► ŽLED (gozdarstvo)
KARTOGRAFSKI PRIKAZI
SPLETNE POVEZAVE
PROJEKTI IN PUBLIKACIJE

AGROMETEOROLOŠKA MREŽA: VREMENSKE POSTAJE IN FENOLOŠKA OPAZOVANJA

Pregled podatkov za lokacijo BOROVNICA, meteorološka postaja 27469

Pregled senzorjev na lokaciji

ID Ime Zadnja
vrednost
Datum
zadnje
spremembe
Tip
senzorja
1683 Temperatura 2 m ( °C) 22,17 °C 19.10.2017 15:59 Generic -40 - +60 °C
1684 Relativna vlaga 2 m (% RH) 38,32 % RH 19.10.2017 16:00 Generic 0 - 100 %
2195 Padavine 0.2 mm (mm) 0 mm 19.10.2017 16:00 Generic 0.2 mm
2199 Omočenost lista (U) 0 U 19.10.2017 15:59 A730WET

Pregled podatkov zadnjih 24 ur

Zap.
št.
Datum in čas BOROVNICA
Omočenost
lista
Padavine
0.2
mm
Relativna
vlaga
2
m
Temperatura
2
m
0 19.10.2017 15:00 0 0 38,32 22,17
1 19.10.2017 14:30 0 0 34,04 22,86
2 19.10.2017 14:00 0 0 35,7 22,71
3 19.10.2017 13:30 0 0 36,48 23,13
4 19.10.2017 13:00 0 0 39,24 22,47
5 19.10.2017 12:30 0 0 36,34 22,52
6 19.10.2017 12:00 0 0 38,24 21,98
7 19.10.2017 11:30 0 0 41,78 21,29
8 19.10.2017 11:00 0 0 44,52 20,05
9 19.10.2017 10:30 0 0 62,2 17,07
10 19.10.2017 10:00 0 0 65,35 14,46
11 19.10.2017 09:30 0 0 74,77 12,38
12 19.10.2017 09:00 0 0 79,29 10,43
13 19.10.2017 08:30 0 0 83,64 9,04
14 19.10.2017 08:00 0 0 99,93 6,91
15 19.10.2017 07:30 0 0 99,93 4,1
16 19.10.2017 07:00 0 0 99,93 2,49
17 19.10.2017 06:30 0 0 99,93 2,95
18 19.10.2017 06:00 0 0 99,93 3,83
19 19.10.2017 05:30 0 0 99,93 4,27
20 19.10.2017 05:00 0 0 99,93 4,52
21 19.10.2017 04:30 0 0 99,93 4,54
22 19.10.2017 04:00 0 0 99,93 4,59
23 19.10.2017 03:30 0 0 99,93 5,98
24 19.10.2017 03:00 0 0 99,93 6,81
25 19.10.2017 02:30 0 0 99,93 8,6
26 19.10.2017 02:00 0 0 99,93 8,57
27 19.10.2017 01:30 0 0 99,9 8,91
28 19.10.2017 01:00 0 0 87,64 10,92
29 19.10.2017 00:30 0 0 92,82 10,96
30 19.10.2017 00:00 0 0 88,42 11,14
31 18.10.2017 23:30 0 0 91,6 10,72
32 18.10.2017 23:00 0 0 89,99 11,43
33 18.10.2017 22:30 0 0 88,18 11,18
34 18.10.2017 22:00 0 0 99,93 10,11
35 18.10.2017 21:30 0 0 99,8 10,62
36 18.10.2017 21:00 0 0 88,77 12,31
37 18.10.2017 20:30 0 0 84,22 12,5
38 18.10.2017 20:00 0 0 88,79 11,92
39 18.10.2017 19:30 0 0 84,54 12,99
40 18.10.2017 19:00 0 0 76,56 15,04
41 18.10.2017 18:30 0 0 73,94 13,92
42 18.10.2017 18:00 0 0 75,31 14,77
43 18.10.2017 17:30 0 0 63,54 16,09
44 18.10.2017 17:00 0 0 60,46 17,31
45 18.10.2017 16:30 0 0 55,36 18,53
© 2011 Ministrstvo za kmetijstvo, gozdarstvo in prehrano. Vse pravice pridržane.